createdAt,value
2022-09-27T00:01:08.381Z,11.60
2022-09-27T00:03:36.165Z,11.60
2022-09-27T00:06:06.043Z,11.50
2022-09-27T00:08:35.452Z,11.70
2022-09-27T00:11:05.789Z,11.60
2022-09-27T00:13:34.021Z,11.60
2022-09-27T00:16:05.657Z,11.60
2022-09-27T00:18:34.593Z,11.70
2022-09-27T00:21:07.403Z,11.70
2022-09-27T00:23:35.822Z,11.70
2022-09-27T00:26:04.557Z,11.70
2022-09-27T00:28:35.364Z,11.60
2022-09-27T00:31:03.102Z,11.60
2022-09-27T00:33:30.876Z,11.60
2022-09-27T00:36:05.913Z,11.60
2022-09-27T00:38:33.521Z,11.60
2022-09-27T00:41:01.222Z,11.60
2022-09-27T00:43:48.600Z,11.50
2022-09-27T00:46:40.096Z,11.60
2022-09-27T00:49:13.923Z,11.60
2022-09-27T00:51:45.344Z,11.60
2022-09-27T00:54:14.778Z,11.60
2022-09-27T00:56:43.498Z,11.60
2022-09-27T00:59:16.134Z,11.60
2022-09-27T01:01:44.848Z,11.50
2022-09-27T01:04:18.378Z,11.50
2022-09-27T01:06:45.898Z,11.10
2022-09-27T01:09:13.342Z,11.40
2022-09-27T01:11:58.121Z,11.40
2022-09-27T01:15:10.522Z,11.40
2022-09-27T01:18:04.391Z,11.40
2022-09-27T01:20:41.230Z,11.40
2022-09-27T01:23:33.019Z,11.40
2022-09-27T01:26:06.334Z,11.40
2022-09-27T01:28:52.573Z,11.40
2022-09-27T01:31:41.619Z,11.40
2022-09-27T01:34:21.150Z,11.40
2022-09-27T01:37:01.329Z,11.40
2022-09-27T01:39:52.550Z,11.50
2022-09-27T01:42:32.335Z,11.40
2022-09-27T01:45:06.073Z,11.40
2022-09-27T01:47:55.443Z,11.40
2022-09-27T01:50:30.982Z,11.30
2022-09-27T01:53:36.322Z,11.40
2022-09-27T01:56:10.259Z,11.40
2022-09-27T01:58:43.763Z,11.30
2022-09-27T02:01:13.426Z,11.30
2022-09-27T02:03:46.263Z,11.30
2022-09-27T02:06:25.150Z,11.40
2022-09-27T02:09:00.829Z,11.70
2022-09-27T02:11:28.717Z,11.30
2022-09-27T02:14:05.318Z,11.30
2022-09-27T02:16:52.981Z,11.30
2022-09-27T02:19:42.197Z,11.30
2022-09-27T02:22:39.648Z,11.30
2022-09-27T02:25:31.866Z,11.30
2022-09-27T02:28:28.095Z,11.30
2022-09-27T02:30:56.955Z,11.30
2022-09-27T02:33:33.566Z,11.30
2022-09-27T02:36:01.532Z,11.30
2022-09-27T02:38:29.414Z,11.30
2022-09-27T02:40:57.325Z,11.30
2022-09-27T02:43:31.391Z,11.30
2022-09-27T02:46:19.050Z,11.30
2022-09-27T02:48:55.237Z,11.30
2022-09-27T02:51:40.783Z,11.20
2022-09-27T02:54:22.590Z,11.30
2022-09-27T02:57:02.721Z,11.20
2022-09-27T02:59:40.551Z,11.10
2022-09-27T03:02:14.281Z,11.10
2022-09-27T03:04:51.289Z,11.10
2022-09-27T03:07:19.348Z,11.10
2022-09-27T03:09:49.780Z,11.10
2022-09-27T03:12:22.751Z,11.20
2022-09-27T03:14:50.263Z,11.10
2022-09-27T03:17:17.909Z,11.10
2022-09-27T03:19:45.301Z,11.10
2022-09-27T03:22:12.751Z,11.10
2022-09-27T03:24:40.517Z,11.10
2022-09-27T03:27:08.477Z,11.10
2022-09-27T03:29:36.335Z,11.10
2022-09-27T03:32:04.524Z,11.20
2022-09-27T03:34:32.002Z,10.50
2022-09-27T03:36:59.571Z,11.20
2022-09-27T03:39:27.423Z,11.20
2022-09-27T03:41:54.947Z,11.20
2022-09-27T03:44:22.329Z,11.20
2022-09-27T03:46:49.828Z,11.20
2022-09-27T03:49:18.056Z,11.20
2022-09-27T03:51:45.509Z,11.20
2022-09-27T03:54:12.967Z,11.20
2022-09-27T03:56:41.495Z,11.10
2022-09-27T03:59:09.084Z,11.10
2022-09-27T04:01:37.798Z,11.20
2022-09-27T04:04:10.900Z,11.10
2022-09-27T04:06:39.066Z,11.10
2022-09-27T04:09:06.433Z,11.20
2022-09-27T04:11:33.772Z,11.60
2022-09-27T04:14:02.047Z,11.20
2022-09-27T04:16:29.809Z,11.20
2022-09-27T04:18:57.433Z,11.20
2022-09-27T04:21:25.115Z,11.20
2022-09-27T04:23:52.638Z,11.20
2022-09-27T04:26:21.336Z,10.90
2022-09-27T04:28:54.284Z,11.20
2022-09-27T04:31:22.730Z,11.20
2022-09-27T04:33:50.176Z,11.20
2022-09-27T04:36:26.873Z,11.20
2022-09-27T04:38:58.967Z,11.20
2022-09-27T04:41:28.605Z,11.20
2022-09-27T04:43:59.403Z,11.30
2022-09-27T04:46:31.977Z,11.30
2022-09-27T04:49:00.825Z,11.30
2022-09-27T04:51:28.688Z,11.30
2022-09-27T04:53:58.054Z,11.40
2022-09-27T04:56:25.635Z,11.30
2022-09-27T04:58:54.144Z,11.30
2022-09-27T05:01:21.764Z,11.30
2022-09-27T05:03:49.673Z,11.10
2022-09-27T05:06:17.199Z,11.50
2022-09-27T05:08:45.880Z,12.20
2022-09-27T05:11:13.269Z,11.30
2022-09-27T05:13:40.991Z,11.50
2022-09-27T05:16:14.353Z,11.60
2022-09-27T05:18:44.489Z,10.20
2022-09-27T05:21:13.953Z,11.70
2022-09-27T05:23:44.785Z,11.70
2022-09-27T05:26:15.976Z,11.70
2022-09-27T05:28:50.126Z,11.70
2022-09-27T05:31:17.961Z,11.80
2022-09-27T05:33:45.495Z,11.80
2022-09-27T05:36:13.368Z,11.80
2022-09-27T05:38:46.863Z,11.90
2022-09-27T05:41:14.472Z,11.90
2022-09-27T05:43:42.329Z,12.00
2022-09-27T05:46:11.332Z,12.00
2022-09-27T05:48:41.519Z,12.00
2022-09-27T05:51:09.765Z,12.10
2022-09-27T05:53:42.920Z,12.10
2022-09-27T05:56:10.564Z,12.10
2022-09-27T05:58:40.470Z,12.10
2022-09-27T06:01:13.122Z,12.20
2022-09-27T06:03:41.299Z,12.20
2022-09-27T06:06:10.830Z,12.20
2022-09-27T06:08:40.152Z,12.20
2022-09-27T06:11:15.896Z,12.20
2022-09-27T06:13:46.487Z,12.20
2022-09-27T06:16:14.098Z,12.20
2022-09-27T06:18:43.070Z,12.20
2022-09-27T06:21:10.709Z,12.20
2022-09-27T06:23:38.776Z,12.50
2022-09-27T06:26:08.101Z,12.30
2022-09-27T06:28:35.969Z,12.30
2022-09-27T06:31:07.057Z,12.30
2022-09-27T06:33:36.147Z,12.40
2022-09-27T06:36:08.670Z,12.40
2022-09-27T06:38:37.056Z,12.40
2022-09-27T06:41:10.140Z,12.40
2022-09-27T06:43:40.645Z,12.90
2022-09-27T06:46:08.326Z,12.50
2022-09-27T06:48:38.644Z,12.50
2022-09-27T06:51:06.975Z,12.40
2022-09-27T06:53:34.628Z,12.60
2022-09-27T06:56:04.172Z,12.40
2022-09-27T06:58:50.192Z,12.40
2022-09-27T07:01:31.089Z,12.40
2022-09-27T07:03:58.960Z,12.30
2022-09-27T07:06:27.530Z,12.40
2022-09-27T07:08:55.995Z,12.40
2022-09-27T07:11:26.340Z,12.50
2022-09-27T07:13:54.147Z,12.50
2022-09-27T07:16:40.434Z,12.70
2022-09-27T07:22:15.240Z,12.40
2022-09-27T07:25:04.018Z,12.50
2022-09-27T07:28:02.619Z,12.50
2022-09-27T07:30:26.313Z,12.50
2022-09-27T07:33:08.365Z,12.50
2022-09-27T07:37:16.007Z,12.60
2022-09-27T07:38:31.899Z,12.60
2022-09-27T07:41:01.174Z,12.60
2022-09-27T07:43:29.855Z,12.60
2022-09-27T07:45:57.715Z,12.60
2022-09-27T07:48:56.532Z,12.60
2022-09-27T07:51:24.410Z,13.00
2022-09-27T07:53:53.660Z,12.70
2022-09-27T07:56:21.319Z,12.60
2022-09-27T07:58:53.376Z,12.60
2022-09-27T08:01:22.678Z,12.60
2022-09-27T08:03:51.724Z,12.70
2022-09-27T08:06:23.371Z,12.60
2022-09-27T08:08:51.239Z,12.90
2022-09-27T08:11:19.715Z,12.70
2022-09-27T08:13:51.945Z,12.70
2022-09-27T08:16:19.583Z,12.80
2022-09-27T08:18:46.965Z,12.90
2022-09-27T08:21:16.137Z,12.90
2022-09-27T08:23:45.410Z,12.60
2022-09-27T08:26:14.844Z,13.00
2022-09-27T08:28:43.500Z,13.30
2022-09-27T08:31:11.015Z,13.00
2022-09-27T08:33:43.836Z,13.00
2022-09-27T08:36:15.641Z,13.10
2022-09-27T08:38:44.789Z,13.10
2022-09-27T08:41:56.853Z,13.10
2022-09-27T08:45:03.634Z,13.30
2022-09-27T08:48:01.958Z,13.30
2022-09-27T08:50:39.692Z,13.30
2022-09-27T08:53:21.257Z,13.70
2022-09-27T08:55:52.029Z,13.50
2022-09-27T08:58:22.554Z,13.60
2022-09-27T09:01:08.807Z,13.80
2022-09-27T09:03:43.494Z,13.90
2022-09-27T09:06:29.105Z,14.00
2022-09-27T09:09:09.451Z,14.20
2022-09-27T09:12:25.134Z,14.40
2022-09-27T09:15:10.547Z,14.50
2022-09-27T09:18:06.775Z,14.60
2022-09-27T09:20:44.056Z,14.70
2022-09-27T09:23:23.245Z,15.20
2022-09-27T09:26:18.263Z,15.10
2022-09-27T09:29:17.181Z,15.10
2022-09-27T09:32:07.717Z,14.80
2022-09-27T09:34:42.365Z,15.40
2022-09-27T09:37:31.992Z,14.50
2022-09-27T09:40:44.239Z,14.60
2022-09-27T09:43:34.436Z,14.60
2022-09-27T09:46:13.950Z,14.50
2022-09-27T09:48:50.490Z,14.60
2022-09-27T09:51:23.126Z,14.70
2022-09-27T09:54:03.978Z,14.90
2022-09-27T09:56:36.159Z,15.10
2022-09-27T09:59:20.105Z,15.30
2022-09-27T10:01:48.694Z,15.70
2022-09-27T10:04:23.693Z,16.10
2022-09-27T10:06:52.890Z,16.40
2022-09-27T10:09:26.953Z,16.50
2022-09-27T10:11:54.841Z,16.80
2022-09-27T10:14:23.005Z,16.90
2022-09-27T10:17:00.276Z,17.30
2022-09-27T10:19:32.161Z,17.50
2022-09-27T10:22:03.573Z,17.60
2022-09-27T10:25:04.932Z,17.40
2022-09-27T10:27:49.979Z,17.20
2022-09-27T10:33:44.353Z,17.20
2022-09-27T10:36:28.972Z,17.40
2022-09-27T10:39:02.620Z,17.60
2022-09-27T10:41:34.870Z,17.80
2022-09-27T10:44:29.895Z,18.00
2022-09-27T10:47:06.560Z,18.60
2022-09-27T10:49:40.947Z,17.90
2022-09-27T10:52:17.276Z,18.10
2022-09-27T10:55:21.120Z,18.00
2022-09-27T10:57:54.549Z,17.80
2022-09-27T11:01:04.661Z,17.70
2022-09-27T11:03:38.142Z,17.60
2022-09-27T11:06:23.715Z,17.30
2022-09-27T11:08:54.481Z,17.70
2022-09-27T11:11:28.385Z,17.90
2022-09-27T11:14:00.580Z,17.80
2022-09-27T11:17:05.363Z,18.20
2022-09-27T11:20:03.918Z,18.40
2022-09-27T11:23:03.711Z,18.20
2022-09-27T11:25:54.806Z,18.30
2022-09-27T11:28:37.024Z,18.30
2022-09-27T11:31:59.033Z,18.50
2022-09-27T11:34:47.956Z,18.70
2022-09-27T11:37:34.846Z,18.50
2022-09-27T11:40:23.901Z,18.10
2022-09-27T11:43:04.452Z,17.90
2022-09-27T11:46:17.824Z,17.70
2022-09-27T11:49:28.794Z,17.90
2022-09-27T11:52:44.181Z,17.60
2022-09-27T11:55:46.449Z,17.40
2022-09-27T11:58:40.219Z,17.10
2022-09-27T12:01:17.386Z,16.60
2022-09-27T12:04:07.139Z,16.20
2022-09-27T12:07:01.519Z,15.80
2022-09-27T12:09:34.978Z,15.40
2022-09-27T12:12:16.873Z,15.30
2022-09-27T12:14:59.116Z,15.20
2022-09-27T12:17:35.534Z,15.20
2022-09-27T12:20:11.407Z,15.10
2022-09-27T12:22:59.871Z,15.20
2022-09-27T12:25:34.205Z,15.20
2022-09-27T12:28:41.114Z,15.00
2022-09-27T12:31:29.698Z,15.00
2022-09-27T12:34:24.763Z,14.80
2022-09-27T12:37:19.456Z,14.80
2022-09-27T12:39:58.543Z,14.70
2022-09-27T12:45:15.269Z,14.90
2022-09-27T12:47:54.275Z,14.30
2022-09-27T12:50:49.861Z,14.30
2022-09-27T12:53:32.638Z,14.30
2022-09-27T12:56:21.914Z,14.30
2022-09-27T12:59:07.950Z,13.80
2022-09-27T13:01:54.108Z,14.40
2022-09-27T13:04:57.049Z,14.30
2022-09-27T13:07:39.535Z,14.30
2022-09-27T13:10:26.572Z,14.80
2022-09-27T13:12:55.874Z,14.30
2022-09-27T13:15:32.256Z,14.20
2022-09-27T13:18:03.623Z,14.00
2022-09-27T13:20:39.073Z,13.90
2022-09-27T13:23:18.775Z,13.90
2022-09-27T13:26:03.981Z,13.70
2022-09-27T13:28:35.952Z,13.70
2022-09-27T13:31:15.348Z,13.60
2022-09-27T13:33:50.083Z,13.60
2022-09-27T13:36:17.831Z,13.60
2022-09-27T13:39:06.591Z,13.70
2022-09-27T13:41:34.317Z,13.70
2022-09-27T13:44:30.297Z,13.70
2022-09-27T13:47:06.898Z,13.70
2022-09-27T13:49:38.348Z,13.70
2022-09-27T13:52:26.371Z,13.80
2022-09-27T13:54:56.213Z,13.40
2022-09-27T13:58:00.898Z,13.80
2022-09-27T14:00:38.039Z,13.80
2022-09-27T14:03:17.352Z,13.70
2022-09-27T14:06:08.922Z,13.60
2022-09-27T14:09:00.639Z,14.20
2022-09-27T14:11:36.735Z,13.50
2022-09-27T14:14:06.348Z,13.50
2022-09-27T14:16:36.503Z,13.50
2022-09-27T14:19:04.326Z,13.40
2022-09-27T14:21:40.177Z,13.30
2022-09-27T14:24:21.728Z,13.30
2022-09-27T14:26:51.153Z,13.30
2022-09-27T14:29:22.307Z,13.30
2022-09-27T14:32:25.154Z,13.10
2022-09-27T14:35:29.209Z,13.20
2022-09-27T14:37:57.981Z,13.20
2022-09-27T14:40:26.319Z,13.10
2022-09-27T14:42:56.089Z,13.10
2022-09-27T14:45:37.632Z,13.10
2022-09-27T14:48:29.807Z,13.10
2022-09-27T14:51:14.015Z,13.10
2022-09-27T14:53:50.234Z,13.00
2022-09-27T14:56:23.957Z,12.90
2022-09-27T14:58:58.644Z,12.80
2022-09-27T15:01:26.192Z,12.80
2022-09-27T15:03:53.854Z,12.80
2022-09-27T15:06:21.986Z,12.80
2022-09-27T15:08:50.581Z,12.80
2022-09-27T15:11:19.575Z,12.80
2022-09-27T15:13:53.161Z,12.70
2022-09-27T15:16:23.441Z,12.60
2022-09-27T15:19:14.619Z,12.30
2022-09-27T15:21:42.069Z,12.50
2022-09-27T15:24:44.469Z,12.60
2022-09-27T15:27:46.541Z,13.50
2022-09-27T15:30:21.265Z,12.60
2022-09-27T15:32:57.636Z,12.60
2022-09-27T15:35:30.363Z,12.60
2022-09-27T15:38:19.922Z,12.50
2022-09-27T15:40:51.324Z,12.50
2022-09-27T15:43:23.456Z,12.40
2022-09-27T15:45:53.428Z,12.40
2022-09-27T15:48:21.509Z,12.50
2022-09-27T15:50:50.348Z,12.30
2022-09-27T15:53:36.249Z,12.20
2022-09-27T15:56:08.614Z,12.20
2022-09-27T15:58:37.029Z,12.20
2022-09-27T16:01:06.056Z,12.20
2022-09-27T16:03:33.983Z,12.20
2022-09-27T16:06:04.949Z,12.10
2022-09-27T16:08:32.808Z,12.10
2022-09-27T16:11:03.034Z,12.00
2022-09-27T16:13:33.169Z,12.00
2022-09-27T16:16:03.511Z,12.00
2022-09-27T16:18:32.219Z,12.00
2022-09-27T16:21:00.468Z,12.00
2022-09-27T16:23:28.245Z,11.90
2022-09-27T16:25:56.192Z,11.90
2022-09-27T16:28:23.592Z,11.90
2022-09-27T16:30:51.180Z,11.90
2022-09-27T16:33:18.882Z,11.90
2022-09-27T16:35:46.618Z,12.00
2022-09-27T16:38:14.124Z,11.80
2022-09-27T16:40:42.008Z,11.80
2022-09-27T16:43:09.804Z,11.80
2022-09-27T16:45:37.633Z,11.20
2022-09-27T16:48:05.427Z,11.80
2022-09-27T16:50:51.421Z,11.70
2022-09-27T16:53:18.991Z,11.70
2022-09-27T16:55:46.780Z,11.70
2022-09-27T16:58:14.477Z,11.70
2022-09-27T17:00:43.455Z,11.50
2022-09-27T17:03:11.031Z,11.60
2022-09-27T17:05:38.457Z,11.50
2022-09-27T17:08:06.091Z,11.50
2022-09-27T17:10:35.899Z,11.30
2022-09-27T17:13:03.608Z,11.40
2022-09-27T17:15:31.759Z,11.30
2022-09-27T17:17:59.312Z,11.30
2022-09-27T17:20:26.833Z,11.20
2022-09-27T17:22:54.344Z,11.20
2022-09-27T17:25:22.108Z,9.50
2022-09-27T17:27:49.468Z,11.00
2022-09-27T17:30:17.052Z,11.00
2022-09-27T17:32:44.605Z,10.90
2022-09-27T17:35:12.211Z,10.90
2022-09-27T17:37:39.760Z,10.80
2022-09-27T17:40:07.574Z,10.80
2022-09-27T17:42:37.649Z,10.80
2022-09-27T17:45:05.446Z,10.70
2022-09-27T17:47:51.725Z,10.70
2022-09-27T17:50:25.431Z,10.80
2022-09-27T17:52:56.892Z,10.60
2022-09-27T17:55:26.856Z,10.60
2022-09-27T17:57:54.541Z,10.60
2022-09-27T18:00:23.714Z,10.60
2022-09-27T18:02:51.511Z,10.50
2022-09-27T18:05:21.418Z,10.50
2022-09-27T18:07:49.770Z,10.00
2022-09-27T18:10:18.289Z,10.50
2022-09-27T18:12:45.691Z,10.40
2022-09-27T18:15:13.355Z,10.40
2022-09-27T18:17:40.926Z,10.40
2022-09-27T18:20:11.772Z,10.40
2022-09-27T18:22:41.883Z,10.40
2022-09-27T18:25:09.424Z,10.30
2022-09-27T18:27:36.938Z,10.30
2022-09-27T18:30:06.400Z,9.70
2022-09-27T18:32:33.840Z,10.20
2022-09-27T18:35:01.296Z,10.20
2022-09-27T18:37:30.453Z,10.20
2022-09-27T18:40:00.133Z,10.10
2022-09-27T18:42:27.647Z,10.20
2022-09-27T18:44:55.122Z,10.20
2022-09-27T18:47:23.999Z,10.20
2022-09-27T18:49:52.474Z,9.50
2022-09-27T18:52:19.992Z,10.10
2022-09-27T18:54:47.611Z,10.10
2022-09-27T18:57:15.164Z,10.10
2022-09-27T18:59:42.682Z,10.10
2022-09-27T19:02:10.900Z,10.10
2022-09-27T19:04:38.561Z,10.10
2022-09-27T19:07:06.157Z,10.10
2022-09-27T19:09:33.896Z,10.10
2022-09-27T19:12:01.554Z,10.10
2022-09-27T19:14:29.870Z,10.10
2022-09-27T19:16:57.421Z,10.00
2022-09-27T19:19:25.247Z,10.00
2022-09-27T19:21:52.828Z,10.00
2022-09-27T19:24:20.436Z,10.00
2022-09-27T19:26:48.362Z,9.90
2022-09-27T19:29:16.010Z,9.90
2022-09-27T19:31:43.536Z,9.90
2022-09-27T19:34:11.551Z,9.90
2022-09-27T19:36:39.094Z,9.80
2022-09-27T19:39:06.710Z,9.80
2022-09-27T19:41:34.106Z,9.70
2022-09-27T19:44:01.926Z,9.60
2022-09-27T19:46:29.821Z,9.60
2022-09-27T19:48:57.762Z,9.60
2022-09-27T19:51:27.602Z,9.60
2022-09-27T19:53:55.848Z,9.60
2022-09-27T19:56:24.436Z,9.60
2022-09-27T19:58:52.388Z,9.60
2022-09-27T20:01:26.273Z,9.60
2022-09-27T20:04:00.179Z,9.60
2022-09-27T20:06:27.989Z,9.60
2022-09-27T20:08:55.870Z,9.60
2022-09-27T20:11:24.168Z,9.60
2022-09-27T20:13:55.344Z,9.60
2022-09-27T20:16:26.949Z,9.60
2022-09-27T20:18:56.742Z,9.60
2022-09-27T20:21:27.183Z,9.60
2022-09-27T20:23:56.520Z,9.60
2022-09-27T20:26:26.407Z,9.60
2022-09-27T20:28:57.268Z,9.70
2022-09-27T20:31:28.066Z,9.70
2022-09-27T20:33:56.145Z,9.70
2022-09-27T20:36:32.339Z,9.60
2022-09-27T20:39:03.041Z,9.60
2022-09-27T20:41:34.144Z,9.50
2022-09-27T20:44:06.746Z,9.50
2022-09-27T20:46:35.720Z,9.50
2022-09-27T20:49:09.402Z,9.50
2022-09-27T20:51:39.452Z,9.50
2022-09-27T20:54:10.121Z,9.50
2022-09-27T20:56:41.071Z,9.50
2022-09-27T20:59:17.740Z,9.50
2022-09-27T21:01:47.617Z,9.40
2022-09-27T21:04:17.213Z,9.50
2022-09-27T21:06:45.177Z,9.40
2022-09-27T21:09:20.140Z,9.40
2022-09-27T21:11:49.270Z,9.40
2022-09-27T21:14:17.225Z,8.60
2022-09-27T21:16:44.760Z,9.30
2022-09-27T21:19:12.500Z,9.30
2022-09-27T21:21:39.946Z,9.30
2022-09-27T21:24:07.965Z,9.30
2022-09-27T21:26:35.827Z,9.30
2022-09-27T21:29:08.715Z,9.30
2022-09-27T21:31:36.907Z,9.80
2022-09-27T21:34:05.676Z,9.10
2022-09-27T21:36:35.837Z,9.10
2022-09-27T21:39:05.036Z,9.10
2022-09-27T21:41:32.738Z,9.10
2022-09-27T21:44:03.974Z,9.40
2022-09-27T21:46:31.649Z,9.10
2022-09-27T21:49:02.393Z,9.10
2022-09-27T21:51:42.029Z,9.00
2022-09-27T21:54:13.611Z,9.00
2022-09-27T21:56:42.239Z,9.00
2022-09-27T21:59:12.596Z,9.00
2022-09-27T22:01:42.521Z,9.00
2022-09-27T22:04:10.258Z,8.90
2022-09-27T22:06:39.469Z,8.70
2022-09-27T22:09:11.759Z,8.90
2022-09-27T22:11:44.550Z,8.90
2022-09-27T22:14:12.626Z,8.80
2022-09-27T22:16:40.033Z,8.80
2022-09-27T22:19:08.058Z,8.80
2022-09-27T22:21:37.453Z,8.80
2022-09-27T22:24:08.567Z,8.80
2022-09-27T22:26:39.255Z,8.70
2022-09-27T22:29:08.854Z,8.70
2022-09-27T22:31:37.438Z,8.60
2022-09-27T22:34:08.196Z,8.70
2022-09-27T22:36:35.858Z,8.70
2022-09-27T22:39:03.856Z,8.70
2022-09-27T22:41:32.261Z,8.60
2022-09-27T22:44:00.270Z,8.70
2022-09-27T22:46:27.813Z,8.70
2022-09-27T22:48:56.281Z,8.70
2022-09-27T22:51:23.860Z,8.60
2022-09-27T22:53:51.392Z,8.60
2022-09-27T22:56:20.508Z,8.30
2022-09-27T22:58:49.217Z,8.50
2022-09-27T23:01:18.053Z,8.50
2022-09-27T23:03:46.483Z,8.50
2022-09-27T23:06:15.614Z,8.60
2022-09-27T23:08:43.921Z,8.60
2022-09-27T23:11:20.170Z,8.70
2022-09-27T23:13:48.945Z,8.80
2022-09-27T23:16:20.392Z,8.80
2022-09-27T23:18:48.247Z,8.90
2022-09-27T23:21:17.316Z,8.90
2022-09-27T23:23:46.290Z,8.90
2022-09-27T23:26:15.578Z,8.90
2022-09-27T23:28:43.507Z,8.90
2022-09-27T23:31:14.038Z,8.90
2022-09-27T23:33:45.481Z,8.90
2022-09-27T23:36:17.934Z,8.90
2022-09-27T23:38:47.036Z,8.10
2022-09-27T23:41:15.718Z,8.80
2022-09-27T23:43:43.579Z,8.80
2022-09-27T23:46:11.917Z,8.80
2022-09-27T23:48:40.072Z,8.70
2022-09-27T23:51:10.431Z,8.60
2022-09-27T23:53:39.309Z,8.50
2022-09-27T23:56:14.031Z,8.40
2022-09-27T23:58:44.212Z,8.30
